Terminal Aerodrome Forecast
Issued by NWS

Home | Current Version | Previous Version | Text Only | Print | Product List | Glossary On
Versions: 1 2 3 4 5 6 7 8 9 10 11 12 13 14 15 16 17 18 19 20 21 22 23 24 25 26 27
000
FTUS43 KGLD 232335
TAFMCK
TAF
KMCK 232335Z 2400/2424 12012G17KT P6SM SCT060
     FM240400 16010KT P6SM VCTS BKN060CB
     FM240800 29007KT 3SM BR VCSH BKN010
     FM241000 28005KT 1SM BR BKN005
     FM241400 29023G33KT P6SM SCT070=

USA.gov is the U.S. government's official web portal to all federal, state and local government web resources and services.